Terminal Aerodrome Forecast
Issued by NWS

Home | Current Version | Previous Version | Text Only | Print | Product List | Glossary On
Versions: 1 2 3 4 5 6 7 8 9 10 11 12 13
912
FTUS43 KABR 280111 AAA
TAFPIR
TAF AMD
KPIR 280111Z 2801/2824 36016G25KT P6SM BKN250
     FM280300 35010KT P6SM VCTS SCT050CB BKN250
     FM280700 35008KT P6SM BKN250
     FM281400 05007KT P6SM BKN250
     FM281700 12013KT P6SM BKN100=

USA.gov is the U.S. government's official web portal to all federal, state and local government web resources and services.